sensor_id;sensor_type;location;lat;lon;timestamp;P1;durP1;ratioP1;P2;durP2;ratioP2
58992;SDS011;44782;0.000;0.000;2024-02-26T00:01:11;0.90;;;0.90;;
58992;SDS011;44782;0.000;0.000;2024-02-26T00:03:27;1.77;;;1.00;;
58992;SDS011;44782;0.000;0.000;2024-02-26T00:05:42;1.23;;;1.13;;
58992;SDS011;44782;0.000;0.000;2024-02-26T00:07:58;1.90;;;1.03;;
58992;SDS011;44782;0.000;0.000;2024-02-26T00:10:14;1.13;;;1.00;;
58992;SDS011;44782;0.000;0.000;2024-02-26T00:12:29;3.53;;;1.00;;
58992;SDS011;44782;0.000;0.000;2024-02-26T00:14:45;1.13;;;0.90;;
58992;SDS011;44782;0.000;0.000;2024-02-26T00:17:02;1.27;;;1.10;;
58992;SDS011;44782;0.000;0.000;2024-02-26T00:19:17;0.93;;;0.93;;
58992;SDS011;44782;0.000;0.000;2024-02-26T00:21:33;1.30;;;1.20;;
58992;SDS011;44782;0.000;0.000;2024-02-26T00:23:49;1.50;;;1.10;;
58992;SDS011;44782;0.000;0.000;2024-02-26T00:26:08;1.10;;;1.10;;
58992;SDS011;44782;0.000;0.000;2024-02-26T00:28:25;1.20;;;1.10;;
58992;SDS011;44782;0.000;0.000;2024-02-26T00:30:45;1.43;;;1.23;;
58992;SDS011;44782;0.000;0.000;2024-02-26T00:33:01;1.00;;;1.00;;
58992;SDS011;44782;0.000;0.000;2024-02-26T00:35:16;1.20;;;1.10;;
58992;SDS011;44782;0.000;0.000;2024-02-26T00:37:35;1.30;;;1.20;;
58992;SDS011;44782;0.000;0.000;2024-02-26T00:39:51;2.30;;;1.00;;
58992;SDS011;44782;0.000;0.000;2024-02-26T00:42:08;1.03;;;1.03;;
58992;SDS011;44782;0.000;0.000;2024-02-26T00:44:24;1.00;;;1.00;;
58992;SDS011;44782;0.000;0.000;2024-02-26T00:46:39;1.43;;;1.10;;
58992;SDS011;44782;0.000;0.000;2024-02-26T00:48:55;1.23;;;1.00;;
58992;SDS011;44782;0.000;0.000;2024-02-26T00:51:10;2.33;;;1.13;;
58992;SDS011;44782;0.000;0.000;2024-02-26T00:53:26;1.23;;;1.10;;
58992;SDS011;44782;0.000;0.000;2024-02-26T00:55:43;1.20;;;1.10;;
58992;SDS011;44782;0.000;0.000;2024-02-26T00:57:59;1.17;;;1.10;;
58992;SDS011;44782;0.000;0.000;2024-02-26T01:00:15;1.23;;;1.17;;
58992;SDS011;44782;0.000;0.000;2024-02-26T01:02:31;1.03;;;1.00;;
58992;SDS011;44782;0.000;0.000;2024-02-26T01:04:46;1.13;;;0.90;;
58992;SDS011;44782;0.000;0.000;2024-02-26T01:07:02;1.20;;;1.13;;
58992;SDS011;44782;0.000;0.000;2024-02-26T01:09:18;1.20;;;1.10;;
58992;SDS011;44782;0.000;0.000;2024-02-26T01:11:33;1.10;;;1.00;;
58992;SDS011;44782;0.000;0.000;2024-02-26T01:13:49;1.20;;;1.10;;
58992;SDS011;44782;0.000;0.000;2024-02-26T01:16:08;1.47;;;1.10;;
58992;SDS011;44782;0.000;0.000;2024-02-26T01:18:24;0.90;;;0.90;;
58992;SDS011;44782;0.000;0.000;2024-02-26T01:20:39;1.20;;;1.10;;
58992;SDS011;44782;0.000;0.000;2024-02-26T01:22:55;1.07;;;1.07;;
58992;SDS011;44782;0.000;0.000;2024-02-26T01:25:11;1.40;;;1.17;;
58992;SDS011;44782;0.000;0.000;2024-02-26T01:27:27;1.00;;;1.00;;
58992;SDS011;44782;0.000;0.000;2024-02-26T01:29:43;1.23;;;1.13;;
58992;SDS011;44782;0.000;0.000;2024-02-26T01:32:01;1.57;;;1.00;;
58992;SDS011;44782;0.000;0.000;2024-02-26T01:34:17;1.10;;;1.00;;
58992;SDS011;44782;0.000;0.000;2024-02-26T01:36:33;1.20;;;1.10;;
58992;SDS011;44782;0.000;0.000;2024-02-26T01:38:49;1.27;;;1.17;;
58992;SDS011;44782;0.000;0.000;2024-02-26T01:41:05;1.00;;;1.00;;
58992;SDS011;44782;0.000;0.000;2024-02-26T01:43:21;1.10;;;1.00;;
58992;SDS011;44782;0.000;0.000;2024-02-26T01:45:37;1.30;;;1.20;;
58992;SDS011;44782;0.000;0.000;2024-02-26T01:47:53;1.00;;;1.00;;
58992;SDS011;44782;0.000;0.000;2024-02-26T01:50:09;1.97;;;1.07;;
58992;SDS011;44782;0.000;0.000;2024-02-26T01:52:25;1.10;;;1.10;;
58992;SDS011;44782;0.000;0.000;2024-02-26T01:54:41;1.20;;;1.10;;
58992;SDS011;44782;0.000;0.000;2024-02-26T01:56:59;1.10;;;1.00;;
58992;SDS011;44782;0.000;0.000;2024-02-26T01:59:15;1.17;;;1.07;;
58992;SDS011;44782;0.000;0.000;2024-02-26T02:01:31;1.30;;;1.20;;
58992;SDS011;44782;0.000;0.000;2024-02-26T02:03:48;1.20;;;1.10;;
58992;SDS011;44782;0.000;0.000;2024-02-26T02:06:04;0.90;;;0.90;;
58992;SDS011;44782;0.000;0.000;2024-02-26T02:08:20;1.10;;;1.10;;
58992;SDS011;44782;0.000;0.000;2024-02-26T02:10:38;1.13;;;1.13;;
58992;SDS011;44782;0.000;0.000;2024-02-26T02:12:53;0.97;;;0.97;;
58992;SDS011;44782;0.000;0.000;2024-02-26T02:15:09;1.20;;;1.20;;
58992;SDS011;44782;0.000;0.000;2024-02-26T02:17:25;1.00;;;1.00;;
58992;SDS011;44782;0.000;0.000;2024-02-26T02:19:41;1.30;;;1.20;;
58992;SDS011;44782;0.000;0.000;2024-02-26T02:22:00;1.00;;;1.00;;
58992;SDS011;44782;0.000;0.000;2024-02-26T02:24:15;1.53;;;1.20;;
58992;SDS011;44782;0.000;0.000;2024-02-26T02:26:31;1.17;;;1.10;;
58992;SDS011;44782;0.000;0.000;2024-02-26T02:28:47;0.93;;;0.93;;
58992;SDS011;44782;0.000;0.000;2024-02-26T02:31:03;1.20;;;1.10;;
58992;SDS011;44782;0.000;0.000;2024-02-26T02:33:20;1.23;;;1.13;;
58992;SDS011;44782;0.000;0.000;2024-02-26T02:35:36;1.47;;;1.30;;
58992;SDS011;44782;0.000;0.000;2024-02-26T02:37:52;1.17;;;1.07;;
58992;SDS011;44782;0.000;0.000;2024-02-26T02:40:08;1.00;;;1.00;;
58992;SDS011;44782;0.000;0.000;2024-02-26T02:42:24;1.30;;;1.20;;
58992;SDS011;44782;0.000;0.000;2024-02-26T02:44:40;1.10;;;1.00;;
58992;SDS011;44782;0.000;0.000;2024-02-26T02:46:55;1.10;;;1.00;;
58992;SDS011;44782;0.000;0.000;2024-02-26T02:49:11;1.10;;;1.10;;
58992;SDS011;44782;0.000;0.000;2024-02-26T02:51:26;2.03;;;1.13;;
58992;SDS011;44782;0.000;0.000;2024-02-26T02:53:42;1.13;;;1.03;;
58992;SDS011;44782;0.000;0.000;2024-02-26T02:55:58;0.90;;;0.90;;
58992;SDS011;44782;0.000;0.000;2024-02-26T02:58:13;1.07;;;1.07;;
58992;SDS011;44782;0.000;0.000;2024-02-26T03:00:29;1.37;;;1.23;;
58992;SDS011;44782;0.000;0.000;2024-02-26T03:02:44;1.30;;;1.20;;
58992;SDS011;44782;0.000;0.000;2024-02-26T03:05:01;1.03;;;1.03;;
58992;SDS011;44782;0.000;0.000;2024-02-26T03:07:20;1.23;;;1.13;;
58992;SDS011;44782;0.000;0.000;2024-02-26T03:09:36;1.20;;;1.10;;
58992;SDS011;44782;0.000;0.000;2024-02-26T03:11:51;1.00;;;1.00;;
58992;SDS011;44782;0.000;0.000;2024-02-26T03:14:07;1.13;;;1.10;;
58992;SDS011;44782;0.000;0.000;2024-02-26T03:16:23;1.10;;;1.10;;
58992;SDS011;44782;0.000;0.000;2024-02-26T03:18:39;1.30;;;1.20;;
58992;SDS011;44782;0.000;0.000;2024-02-26T03:20:55;1.07;;;1.07;;
58992;SDS011;44782;0.000;0.000;2024-02-26T03:23:10;0.90;;;0.90;;
58992;SDS011;44782;0.000;0.000;2024-02-26T03:25:29;1.40;;;1.30;;
58992;SDS011;44782;0.000;0.000;2024-02-26T03:27:45;1.20;;;1.10;;
58992;SDS011;44782;0.000;0.000;2024-02-26T03:30:01;1.33;;;1.20;;
58992;SDS011;44782;0.000;0.000;2024-02-26T03:32:17;1.30;;;1.20;;
58992;SDS011;44782;0.000;0.000;2024-02-26T03:34:33;1.40;;;1.30;;
58992;SDS011;44782;0.000;0.000;2024-02-26T03:36:54;1.03;;;1.03;;
58992;SDS011;44782;0.000;0.000;2024-02-26T03:39:10;1.30;;;1.20;;
58992;SDS011;44782;0.000;0.000;2024-02-26T03:41:25;1.20;;;1.10;;
58992;SDS011;44782;0.000;0.000;2024-02-26T03:43:41;1.37;;;1.27;;
58992;SDS011;44782;0.000;0.000;2024-02-26T03:45:57;1.50;;;1.40;;
58992;SDS011;44782;0.000;0.000;2024-02-26T03:48:12;1.40;;;1.30;;
58992;SDS011;44782;0.000;0.000;2024-02-26T03:50:28;1.20;;;1.10;;
58992;SDS011;44782;0.000;0.000;2024-02-26T03:52:44;1.50;;;1.40;;
58992;SDS011;44782;0.000;0.000;2024-02-26T03:55:00;1.70;;;1.60;;
58992;SDS011;44782;0.000;0.000;2024-02-26T03:57:15;1.50;;;1.40;;
58992;SDS011;44782;0.000;0.000;2024-02-26T03:59:31;2.60;;;1.60;;
58992;SDS011;44782;0.000;0.000;2024-02-26T04:01:46;1.47;;;1.37;;
58992;SDS011;44782;0.000;0.000;2024-02-26T04:04:02;1.40;;;1.30;;
58992;SDS011;44782;0.000;0.000;2024-02-26T04:06:18;1.40;;;1.30;;
58992;SDS011;44782;0.000;0.000;2024-02-26T04:08:36;1.10;;;1.10;;
58992;SDS011;44782;0.000;0.000;2024-02-26T04:10:52;1.40;;;1.30;;
58992;SDS011;44782;0.000;0.000;2024-02-26T04:13:08;1.10;;;1.10;;
58992;SDS011;44782;0.000;0.000;2024-02-26T04:15:24;1.20;;;1.20;;
58992;SDS011;44782;0.000;0.000;2024-02-26T04:17:39;1.23;;;1.20;;
58992;SDS011;44782;0.000;0.000;2024-02-26T04:19:55;1.30;;;1.20;;
58992;SDS011;44782;0.000;0.000;2024-02-26T04:22:11;1.30;;;1.20;;
58992;SDS011;44782;0.000;0.000;2024-02-26T04:24:27;1.13;;;1.10;;
58992;SDS011;44782;0.000;0.000;2024-02-26T04:26:42;1.30;;;1.20;;
58992;SDS011;44782;0.000;0.000;2024-02-26T04:28:58;1.30;;;1.20;;
58992;SDS011;44782;0.000;0.000;2024-02-26T04:31:14;1.10;;;1.10;;
58992;SDS011;44782;0.000;0.000;2024-02-26T04:33:29;1.30;;;1.20;;
58992;SDS011;44782;0.000;0.000;2024-02-26T04:35:45;1.00;;;1.00;;
58992;SDS011;44782;0.000;0.000;2024-02-26T04:38:00;1.30;;;1.20;;
58992;SDS011;44782;0.000;0.000;2024-02-26T04:40:16;1.00;;;1.00;;
58992;SDS011;44782;0.000;0.000;2024-02-26T04:42:32;1.00;;;1.00;;
58992;SDS011;44782;0.000;0.000;2024-02-26T04:44:47;1.05;;;1.02;;
58992;SDS011;44782;0.000;0.000;2024-02-26T04:47:03;1.00;;;1.00;;
58992;SDS011;44782;0.000;0.000;2024-02-26T04:49:18;1.38;;;1.27;;
58992;SDS011;44782;0.000;0.000;2024-02-26T04:51:34;1.20;;;1.10;;
58992;SDS011;44782;0.000;0.000;2024-02-26T04:53:50;1.33;;;1.23;;
58992;SDS011;44782;0.000;0.000;2024-02-26T04:56:05;1.10;;;1.10;;
58992;SDS011;44782;0.000;0.000;2024-02-26T04:58:21;1.10;;;1.10;;
58992;SDS011;44782;0.000;0.000;2024-02-26T05:00:37;1.08;;;1.00;;
58992;SDS011;44782;0.000;0.000;2024-02-26T05:02:52;1.45;;;1.10;;
58992;SDS011;44782;0.000;0.000;2024-02-26T05:05:08;1.30;;;1.20;;
58992;SDS011;44782;0.000;0.000;2024-02-26T05:07:23;1.30;;;1.20;;
58992;SDS011;44782;0.000;0.000;2024-02-26T05:09:39;1.27;;;1.17;;
58992;SDS011;44782;0.000;0.000;2024-02-26T05:11:56;1.90;;;1.30;;
58992;SDS011;44782;0.000;0.000;2024-02-26T05:14:12;1.77;;;1.30;;
58992;SDS011;44782;0.000;0.000;2024-02-26T05:16:28;1.40;;;1.30;;
58992;SDS011;44782;0.000;0.000;2024-02-26T05:18:45;1.27;;;1.17;;
58992;SDS011;44782;0.000;0.000;2024-02-26T05:21:00;1.30;;;1.20;;
58992;SDS011;44782;0.000;0.000;2024-02-26T05:23:18;1.30;;;1.20;;
58992;SDS011;44782;0.000;0.000;2024-02-26T05:25:34;1.30;;;1.20;;
58992;SDS011;44782;0.000;0.000;2024-02-26T05:27:49;1.58;;;1.48;;
58992;SDS011;44782;0.000;0.000;2024-02-26T05:30:05;1.30;;;1.20;;
58992;SDS011;44782;0.000;0.000;2024-02-26T05:32:21;1.48;;;1.30;;
58992;SDS011;44782;0.000;0.000;2024-02-26T05:34:37;1.38;;;1.27;;
58992;SDS011;44782;0.000;0.000;2024-02-26T05:36:53;1.13;;;1.05;;
58992;SDS011;44782;0.000;0.000;2024-02-26T05:39:08;1.40;;;1.30;;
58992;SDS011;44782;0.000;0.000;2024-02-26T05:41:26;1.50;;;1.40;;
58992;SDS011;44782;0.000;0.000;2024-02-26T05:43:42;1.50;;;1.40;;
58992;SDS011;44782;0.000;0.000;2024-02-26T05:45:58;1.15;;;1.10;;
58992;SDS011;44782;0.000;0.000;2024-02-26T05:48:13;1.30;;;1.20;;
58992;SDS011;44782;0.000;0.000;2024-02-26T05:50:29;1.33;;;1.20;;
58992;SDS011;44782;0.000;0.000;2024-02-26T05:52:45;1.58;;;1.48;;
58992;SDS011;44782;0.000;0.000;2024-02-26T05:55:00;1.40;;;1.30;;
58992;SDS011;44782;0.000;0.000;2024-02-26T05:57:16;1.10;;;1.10;;
58992;SDS011;44782;0.000;0.000;2024-02-26T05:59:33;1.30;;;1.20;;
58992;SDS011;44782;0.000;0.000;2024-02-26T06:01:49;1.65;;;1.55;;
58992;SDS011;44782;0.000;0.000;2024-02-26T06:04:04;1.35;;;1.25;;
58992;SDS011;44782;0.000;0.000;2024-02-26T06:06:20;1.50;;;1.30;;
58992;SDS011;44782;0.000;0.000;2024-02-26T06:08:37;1.20;;;1.10;;
58992;SDS011;44782;0.000;0.000;2024-02-26T06:10:53;1.50;;;1.38;;
58992;SDS011;44782;0.000;0.000;2024-02-26T06:13:09;1.60;;;1.50;;
58992;SDS011;44782;0.000;0.000;2024-02-26T06:15:24;1.73;;;1.40;;
58992;SDS011;44782;0.000;0.000;2024-02-26T06:17:40;1.48;;;1.25;;
58992;SDS011;44782;0.000;0.000;2024-02-26T06:19:56;1.55;;;1.45;;
58992;SDS011;44782;0.000;0.000;2024-02-26T06:22:11;1.67;;;1.58;;
58992;SDS011;44782;0.000;0.000;2024-02-26T06:24:27;1.73;;;1.30;;
58992;SDS011;44782;0.000;0.000;2024-02-26T06:26:42;2.17;;;1.80;;
58992;SDS011;44782;0.000;0.000;2024-02-26T06:28:58;3.20;;;1.65;;
58992;SDS011;44782;0.000;0.000;2024-02-26T06:31:14;1.33;;;1.15;;
58992;SDS011;44782;0.000;0.000;2024-02-26T06:33:29;1.75;;;1.50;;
58992;SDS011;44782;0.000;0.000;2024-02-26T06:35:45;1.80;;;1.55;;
58992;SDS011;44782;0.000;0.000;2024-02-26T06:38:01;1.60;;;1.50;;
58992;SDS011;44782;0.000;0.000;2024-02-26T06:40:16;2.10;;;1.75;;
58992;SDS011;44782;0.000;0.000;2024-02-26T06:42:32;2.20;;;1.70;;
58992;SDS011;44782;0.000;0.000;2024-02-26T06:44:48;2.10;;;1.75;;
58992;SDS011;44782;0.000;0.000;2024-02-26T06:47:04;2.77;;;1.80;;
58992;SDS011;44782;0.000;0.000;2024-02-26T06:49:19;2.37;;;1.90;;
58992;SDS011;44782;0.000;0.000;2024-02-26T06:51:35;2.90;;;1.90;;
58992;SDS011;44782;0.000;0.000;2024-02-26T06:53:51;2.73;;;1.93;;
58992;SDS011;44782;0.000;0.000;2024-02-26T06:56:06;3.07;;;2.23;;
58992;SDS011;44782;0.000;0.000;2024-02-26T06:58:22;3.37;;;2.40;;
58992;SDS011;44782;0.000;0.000;2024-02-26T07:00:37;3.70;;;2.50;;
58992;SDS011;44782;0.000;0.000;2024-02-26T07:02:53;3.90;;;2.30;;
58992;SDS011;44782;0.000;0.000;2024-02-26T07:05:09;4.40;;;2.80;;
58992;SDS011;44782;0.000;0.000;2024-02-26T07:07:24;5.43;;;2.90;;
58992;SDS011;44782;0.000;0.000;2024-02-26T07:09:41;4.53;;;2.63;;
58992;SDS011;44782;0.000;0.000;2024-02-26T07:11:57;5.30;;;2.80;;
58992;SDS011;44782;0.000;0.000;2024-02-26T07:14:13;4.30;;;2.77;;
58992;SDS011;44782;0.000;0.000;2024-02-26T07:16:29;5.43;;;2.90;;
58992;SDS011;44782;0.000;0.000;2024-02-26T07:18:44;5.13;;;3.30;;
58992;SDS011;44782;0.000;0.000;2024-02-26T07:21:03;6.27;;;3.60;;
58992;SDS011;44782;0.000;0.000;2024-02-26T07:23:19;7.47;;;3.60;;
58992;SDS011;44782;0.000;0.000;2024-02-26T07:25:34;6.67;;;3.97;;
58992;SDS011;44782;0.000;0.000;2024-02-26T07:27:50;6.30;;;4.00;;
58992;SDS011;44782;0.000;0.000;2024-02-26T07:30:06;7.23;;;3.93;;
58992;SDS011;44782;0.000;0.000;2024-02-26T07:32:23;8.00;;;4.23;;
58992;SDS011;44782;0.000;0.000;2024-02-26T07:34:42;8.73;;;4.30;;
58992;SDS011;44782;0.000;0.000;2024-02-26T07:36:59;8.83;;;4.47;;
58992;SDS011;44782;0.000;0.000;2024-02-26T07:39:15;8.67;;;4.70;;
58992;SDS011;44782;0.000;0.000;2024-02-26T07:41:30;8.93;;;4.70;;
58992;SDS011;44782;0.000;0.000;2024-02-26T07:43:46;9.57;;;5.07;;
58992;SDS011;44782;0.000;0.000;2024-02-26T07:46:02;10.13;;;5.30;;
58992;SDS011;44782;0.000;0.000;2024-02-26T07:48:17;11.77;;;5.67;;
58992;SDS011;44782;0.000;0.000;2024-02-26T07:50:33;11.27;;;5.57;;
58992;SDS011;44782;0.000;0.000;2024-02-26T07:52:49;12.50;;;6.20;;
58992;SDS011;44782;0.000;0.000;2024-02-26T07:55:06;9.67;;;5.73;;
58992;SDS011;44782;0.000;0.000;2024-02-26T07:57:22;13.00;;;5.73;;
58992;SDS011;44782;0.000;0.000;2024-02-26T07:59:37;13.53;;;6.37;;
58992;SDS011;44782;0.000;0.000;2024-02-26T08:01:55;11.40;;;6.10;;
58992;SDS011;44782;0.000;0.000;2024-02-26T08:04:11;10.03;;;5.90;;
58992;SDS011;44782;0.000;0.000;2024-02-26T08:06:27;11.73;;;5.70;;
58992;SDS011;44782;0.000;0.000;2024-02-26T08:08:42;11.83;;;6.43;;
58992;SDS011;44782;0.000;0.000;2024-02-26T08:10:59;10.87;;;5.83;;
58992;SDS011;44782;0.000;0.000;2024-02-26T08:13:14;11.97;;;6.17;;
58992;SDS011;44782;0.000;0.000;2024-02-26T08:15:33;11.67;;;5.90;;
58992;SDS011;44782;0.000;0.000;2024-02-26T08:17:49;10.00;;;5.83;;
58992;SDS011;44782;0.000;0.000;2024-02-26T08:20:05;11.93;;;6.23;;
58992;SDS011;44782;0.000;0.000;2024-02-26T08:22:21;13.53;;;6.00;;
58992;SDS011;44782;0.000;0.000;2024-02-26T08:24:37;10.63;;;5.47;;
58992;SDS011;44782;0.000;0.000;2024-02-26T08:26:52;10.50;;;5.53;;
58992;SDS011;44782;0.000;0.000;2024-02-26T08:29:08;10.37;;;5.97;;
58992;SDS011;44782;0.000;0.000;2024-02-26T08:31:24;9.50;;;5.37;;
58992;SDS011;44782;0.000;0.000;2024-02-26T08:33:40;9.80;;;5.80;;
58992;SDS011;44782;0.000;0.000;2024-02-26T08:35:55;9.23;;;5.23;;
58992;SDS011;44782;0.000;0.000;2024-02-26T08:38:11;9.87;;;5.73;;
58992;SDS011;44782;0.000;0.000;2024-02-26T08:40:27;10.53;;;5.07;;
58992;SDS011;44782;0.000;0.000;2024-02-26T08:42:43;9.87;;;5.40;;
58992;SDS011;44782;0.000;0.000;2024-02-26T08:44:58;10.20;;;5.47;;
58992;SDS011;44782;0.000;0.000;2024-02-26T08:47:16;10.03;;;5.80;;
58992;SDS011;44782;0.000;0.000;2024-02-26T08:49:32;10.63;;;5.47;;
58992;SDS011;44782;0.000;0.000;2024-02-26T08:51:48;10.70;;;5.47;;
58992;SDS011;44782;0.000;0.000;2024-02-26T08:54:03;8.30;;;4.77;;
58992;SDS011;44782;0.000;0.000;2024-02-26T08:56:19;8.43;;;5.10;;
58992;SDS011;44782;0.000;0.000;2024-02-26T08:58:36;10.90;;;5.37;;
58992;SDS011;44782;0.000;0.000;2024-02-26T09:00:52;9.30;;;5.23;;
58992;SDS011;44782;0.000;0.000;2024-02-26T09:03:07;8.57;;;4.63;;
58992;SDS011;44782;0.000;0.000;2024-02-26T09:05:23;8.73;;;4.77;;
58992;SDS011;44782;0.000;0.000;2024-02-26T09:07:38;7.63;;;4.73;;
58992;SDS011;44782;0.000;0.000;2024-02-26T09:09:54;8.20;;;4.73;;
58992;SDS011;44782;0.000;0.000;2024-02-26T09:12:10;6.93;;;4.17;;
58992;SDS011;44782;0.000;0.000;2024-02-26T09:14:25;8.47;;;4.53;;
58992;SDS011;44782;0.000;0.000;2024-02-26T09:16:41;8.40;;;4.80;;
58992;SDS011;44782;0.000;0.000;2024-02-26T09:18:56;9.73;;;4.53;;
58992;SDS011;44782;0.000;0.000;2024-02-26T09:21:12;8.73;;;4.40;;
58992;SDS011;44782;0.000;0.000;2024-02-26T09:23:28;9.83;;;4.67;;
58992;SDS011;44782;0.000;0.000;2024-02-26T09:25:43;8.77;;;4.80;;
58992;SDS011;44782;0.000;0.000;2024-02-26T09:27:59;8.07;;;4.63;;
58992;SDS011;44782;0.000;0.000;2024-02-26T09:30:17;8.80;;;4.57;;
58992;SDS011;44782;0.000;0.000;2024-02-26T09:32:33;7.27;;;4.37;;
58992;SDS011;44782;0.000;0.000;2024-02-26T09:34:49;6.97;;;4.27;;
58992;SDS011;44782;0.000;0.000;2024-02-26T09:37:05;8.33;;;4.83;;
58992;SDS011;44782;0.000;0.000;2024-02-26T09:39:20;6.80;;;4.40;;
58992;SDS011;44782;0.000;0.000;2024-02-26T09:41:37;7.13;;;4.37;;
58992;SDS011;44782;0.000;0.000;2024-02-26T09:43:54;6.23;;;4.07;;
58992;SDS011;44782;0.000;0.000;2024-02-26T09:46:12;6.17;;;3.70;;
58992;SDS011;44782;0.000;0.000;2024-02-26T09:48:29;7.13;;;4.20;;
58992;SDS011;44782;0.000;0.000;2024-02-26T09:50:45;7.93;;;4.27;;
58992;SDS011;44782;0.000;0.000;2024-02-26T09:53:02;7.37;;;4.13;;
58992;SDS011;44782;0.000;0.000;2024-02-26T09:55:20;5.70;;;3.77;;
58992;SDS011;44782;0.000;0.000;2024-02-26T09:57:39;5.87;;;3.70;;
58992;SDS011;44782;0.000;0.000;2024-02-26T10:00:00;7.07;;;3.87;;
58992;SDS011;44782;0.000;0.000;2024-02-26T10:02:22;6.70;;;3.40;;
58992;SDS011;44782;0.000;0.000;2024-02-26T10:04:42;5.20;;;3.63;;
58992;SDS011;44782;0.000;0.000;2024-02-26T10:06:58;8.27;;;4.10;;
58992;SDS011;44782;0.000;0.000;2024-02-26T10:09:15;5.67;;;3.40;;
58992;SDS011;44782;0.000;0.000;2024-02-26T10:11:32;5.17;;;3.50;;
58992;SDS011;44782;0.000;0.000;2024-02-26T10:13:48;5.23;;;3.70;;
58992;SDS011;44782;0.000;0.000;2024-02-26T10:16:04;5.97;;;3.40;;
58992;SDS011;44782;0.000;0.000;2024-02-26T10:18:22;5.10;;;3.37;;
58992;SDS011;44782;0.000;0.000;2024-02-26T10:20:39;5.67;;;3.30;;
58992;SDS011;44782;0.000;0.000;2024-02-26T10:22:54;5.67;;;3.10;;
58992;SDS011;44782;0.000;0.000;2024-02-26T10:25:10;4.93;;;3.20;;
58992;SDS011;44782;0.000;0.000;2024-02-26T10:27:26;4.63;;;3.20;;
58992;SDS011;44782;0.000;0.000;2024-02-26T10:29:43;4.83;;;3.10;;
58992;SDS011;44782;0.000;0.000;2024-02-26T10:32:02;4.77;;;2.90;;
58992;SDS011;44782;0.000;0.000;2024-02-26T10:34:18;4.47;;;2.93;;
58992;SDS011;44782;0.000;0.000;2024-02-26T10:36:34;4.50;;;2.90;;
58992;SDS011;44782;0.000;0.000;2024-02-26T10:38:50;3.60;;;2.70;;
58992;SDS011;44782;0.000;0.000;2024-02-26T10:41:06;3.53;;;2.60;;
58992;SDS011;44782;0.000;0.000;2024-02-26T10:43:22;4.10;;;3.10;;
58992;SDS011;44782;0.000;0.000;2024-02-26T10:45:37;6.87;;;3.13;;
58992;SDS011;44782;0.000;0.000;2024-02-26T10:47:56;3.67;;;2.97;;
58992;SDS011;44782;0.000;0.000;2024-02-26T10:50:12;4.03;;;2.70;;
58992;SDS011;44782;0.000;0.000;2024-02-26T10:52:33;4.47;;;2.87;;
58992;SDS011;44782;0.000;0.000;2024-02-26T10:54:50;4.20;;;2.80;;
58992;SDS011;44782;0.000;0.000;2024-02-26T10:57:12;4.73;;;2.87;;
58992;SDS011;44782;0.000;0.000;2024-02-26T10:59:30;5.50;;;2.77;;
58992;SDS011;44782;0.000;0.000;2024-02-26T11:01:48;3.70;;;2.60;;
58992;SDS011;44782;0.000;0.000;2024-02-26T11:04:04;2.70;;;2.37;;
58992;SDS011;44782;0.000;0.000;2024-02-26T11:06:21;3.83;;;2.60;;
58992;SDS011;44782;0.000;0.000;2024-02-26T11:08:37;4.27;;;2.57;;
58992;SDS011;44782;0.000;0.000;2024-02-26T11:10:53;4.37;;;2.33;;
58992;SDS011;44782;0.000;0.000;2024-02-26T11:13:10;4.57;;;2.67;;
58992;SDS011;44782;0.000;0.000;2024-02-26T11:15:29;4.70;;;2.50;;
58992;SDS011;44782;0.000;0.000;2024-02-26T11:17:47;2.93;;;2.03;;
58992;SDS011;44782;0.000;0.000;2024-02-26T11:20:03;5.00;;;2.57;;
58992;SDS011;44782;0.000;0.000;2024-02-26T11:22:20;3.63;;;2.07;;
58992;SDS011;44782;0.000;0.000;2024-02-26T11:24:45;3.17;;;2.03;;
58992;SDS011;44782;0.000;0.000;2024-02-26T11:27:02;3.43;;;2.20;;
58992;SDS011;44782;0.000;0.000;2024-02-26T11:29:21;3.00;;;2.33;;
58992;SDS011;44782;0.000;0.000;2024-02-26T11:31:38;2.60;;;2.27;;
58992;SDS011;44782;0.000;0.000;2024-02-26T11:33:54;2.77;;;2.10;;
58992;SDS011;44782;0.000;0.000;2024-02-26T11:36:11;2.87;;;2.10;;
58992;SDS011;44782;0.000;0.000;2024-02-26T11:38:29;4.97;;;2.20;;
58992;SDS011;44782;0.000;0.000;2024-02-26T11:40:44;2.10;;;1.80;;
58992;SDS011;44782;0.000;0.000;2024-02-26T11:43:00;2.20;;;1.90;;
58992;SDS011;44782;0.000;0.000;2024-02-26T11:48:03;3.63;;;2.20;;
58992;SDS011;44782;0.000;0.000;2024-02-26T11:50:35;3.20;;;2.13;;
58992;SDS011;44782;0.000;0.000;2024-02-26T11:58:41;2.60;;;2.00;;
58992;SDS011;44782;0.000;0.000;2024-02-26T12:00:57;1.90;;;1.70;;
58992;SDS011;44782;0.000;0.000;2024-02-26T12:03:13;5.13;;;2.17;;
58992;SDS011;44782;0.000;0.000;2024-02-26T12:05:33;2.83;;;1.90;;
58992;SDS011;44782;0.000;0.000;2024-02-26T12:08:01;2.90;;;2.17;;
58992;SDS011;44782;0.000;0.000;2024-02-26T12:10:26;3.97;;;2.00;;
58992;SDS011;44782;0.000;0.000;2024-02-26T12:12:49;4.10;;;2.03;;
58992;SDS011;44782;0.000;0.000;2024-02-26T12:15:04;2.10;;;1.90;;
58992;SDS011;44782;0.000;0.000;2024-02-26T12:17:24;3.03;;;2.00;;
58992;SDS011;44782;0.000;0.000;2024-02-26T12:19:40;2.90;;;1.67;;
58992;SDS011;44782;0.000;0.000;2024-02-26T12:21:55;2.80;;;1.90;;
58992;SDS011;44782;0.000;0.000;2024-02-26T12:24:12;2.17;;;1.80;;
58992;SDS011;44782;0.000;0.000;2024-02-26T12:26:28;2.13;;;1.60;;
58992;SDS011;44782;0.000;0.000;2024-02-26T12:28:44;2.33;;;2.10;;
58992;SDS011;44782;0.000;0.000;2024-02-26T12:31:02;2.67;;;1.90;;
58992;SDS011;44782;0.000;0.000;2024-02-26T12:33:19;2.50;;;1.93;;
58992;SDS011;44782;0.000;0.000;2024-02-26T12:35:35;2.00;;;1.80;;
58992;SDS011;44782;0.000;0.000;2024-02-26T12:37:51;2.53;;;1.87;;
58992;SDS011;44782;0.000;0.000;2024-02-26T12:40:11;2.37;;;1.70;;
58992;SDS011;44782;0.000;0.000;2024-02-26T12:42:27;2.43;;;1.90;;
58992;SDS011;44782;0.000;0.000;2024-02-26T12:44:44;1.80;;;1.70;;
58992;SDS011;44782;0.000;0.000;2024-02-26T12:47:01;2.27;;;1.60;;
58992;SDS011;44782;0.000;0.000;2024-02-26T12:49:20;1.83;;;1.63;;
58992;SDS011;44782;0.000;0.000;2024-02-26T12:51:36;2.37;;;1.60;;
58992;SDS011;44782;0.000;0.000;2024-02-26T12:53:53;2.00;;;1.70;;
58992;SDS011;44782;0.000;0.000;2024-02-26T12:56:10;1.83;;;1.50;;
58992;SDS011;44782;0.000;0.000;2024-02-26T12:58:29;2.13;;;1.80;;
58992;SDS011;44782;0.000;0.000;2024-02-26T13:00:47;3.67;;;1.80;;
58992;SDS011;44782;0.000;0.000;2024-02-26T13:03:04;1.80;;;1.53;;
58992;SDS011;44782;0.000;0.000;2024-02-26T13:05:20;1.70;;;1.50;;
58992;SDS011;44782;0.000;0.000;2024-02-26T13:07:43;2.63;;;1.80;;
58992;SDS011;44782;0.000;0.000;2024-02-26T13:09:59;1.50;;;1.40;;
58992;SDS011;44782;0.000;0.000;2024-02-26T13:12:15;3.53;;;1.70;;
58992;SDS011;44782;0.000;0.000;2024-02-26T13:14:31;2.23;;;1.50;;
58992;SDS011;44782;0.000;0.000;2024-02-26T13:16:58;1.70;;;1.60;;
58992;SDS011;44782;0.000;0.000;2024-02-26T13:19:13;1.80;;;1.50;;
58992;SDS011;44782;0.000;0.000;2024-02-26T13:21:29;1.70;;;1.50;;
58992;SDS011;44782;0.000;0.000;2024-02-26T13:23:48;2.20;;;1.63;;
58992;SDS011;44782;0.000;0.000;2024-02-26T13:26:05;1.60;;;1.50;;
58992;SDS011;44782;0.000;0.000;2024-02-26T13:28:21;1.77;;;1.67;;
58992;SDS011;44782;0.000;0.000;2024-02-26T13:30:39;1.77;;;1.50;;
58992;SDS011;44782;0.000;0.000;2024-02-26T13:32:55;1.90;;;1.60;;
58992;SDS011;44782;0.000;0.000;2024-02-26T13:35:11;1.67;;;1.57;;
58992;SDS011;44782;0.000;0.000;2024-02-26T13:37:27;1.63;;;1.50;;
58992;SDS011;44782;0.000;0.000;2024-02-26T13:39:43;1.77;;;1.50;;
58992;SDS011;44782;0.000;0.000;2024-02-26T13:41:58;1.60;;;1.50;;
58992;SDS011;44782;0.000;0.000;2024-02-26T13:44:14;1.77;;;1.50;;
58992;SDS011;44782;0.000;0.000;2024-02-26T13:46:29;1.93;;;1.50;;
58992;SDS011;44782;0.000;0.000;2024-02-26T13:48:45;1.97;;;1.53;;
58992;SDS011;44782;0.000;0.000;2024-02-26T13:51:01;1.77;;;1.67;;
58992;SDS011;44782;0.000;0.000;2024-02-26T13:53:16;1.70;;;1.40;;
58992;SDS011;44782;0.000;0.000;2024-02-26T13:55:32;1.60;;;1.50;;
58992;SDS011;44782;0.000;0.000;2024-02-26T13:57:48;1.80;;;1.40;;
58992;SDS011;44782;0.000;0.000;2024-02-26T14:00:04;1.50;;;1.40;;
58992;SDS011;44782;0.000;0.000;2024-02-26T14:02:21;1.50;;;1.40;;